Terminal Aerodrome Forecast
Issued by NWS Charleston, WV

Current Version | Previous Version | Graphics & Text | Print | Product List | Glossary On
Versions: 1 2 3 4 5 6 7 8 9 10 11 12 13 14 15 16 17 18 19 20 21 22 23 24 25 26 27 28 29 30 31 32
000
FTUS41 KRLX 231311 AAB
TAFEKN
TAF AMD
KEKN 231311Z 2313/2412 00000KT P6SM SCT015 BKN020
      TEMPO 2313/2314 BKN015
     FM231700 32005KT P6SM SCT025
     FM232000 32006KT P6SM SCT035
     FM240000 35004KT P6SM FEW250
     FM240800 00000KT 4SM BR FEW250
     FM240900 00000KT 1SM BR FEW250
     FM241100 00000KT 3SM BR FEW250=

USA.gov is the U.S. government's official web portal to all federal, state and local government web resources and services.